createdAt,value
2019-03-27T00:01:44.551Z,50.58
2019-03-27T00:04:20.848Z,52.14
2019-03-27T00:06:49.150Z,53.16
2019-03-27T00:09:22.638Z,52.92
2019-03-27T00:11:52.244Z,53.21
2019-03-27T00:14:21.914Z,52.88
2019-03-27T00:16:53.902Z,53.75
2019-03-27T00:19:26.117Z,52.58
2019-03-27T00:21:57.052Z,53.43
2019-03-27T00:24:26.859Z,53.05
2019-03-27T00:27:02.401Z,54.00
2019-03-27T00:29:36.727Z,51.08
2019-03-27T00:32:11.908Z,52.82
2019-03-27T00:34:41.549Z,53.25
2019-03-27T00:37:11.178Z,52.11
2019-03-27T00:39:40.876Z,51.43
2019-03-27T00:42:13.859Z,50.63
2019-03-27T00:44:43.902Z,50.57
2019-03-27T00:47:18.423Z,52.37
2019-03-27T00:49:50.735Z,51.92
2019-03-27T00:52:23.017Z,51.17
2019-03-27T00:54:55.623Z,51.50
2019-03-27T00:57:29.488Z,52.51
2019-03-27T00:59:59.362Z,50.64
2019-03-27T01:02:28.978Z,50.76
2019-03-27T01:04:59.466Z,50.59
2019-03-27T01:07:29.089Z,51.04
2019-03-27T01:09:58.685Z,52.36
2019-03-27T01:12:28.539Z,50.81
2019-03-27T01:14:58.139Z,50.66
2019-03-27T01:17:27.932Z,51.37
2019-03-27T01:20:02.456Z,50.63
2019-03-27T01:22:32.066Z,50.90
2019-03-27T01:25:01.646Z,50.07
2019-03-27T01:27:31.570Z,50.56
2019-03-27T01:30:01.506Z,50.44
2019-03-27T01:32:31.259Z,50.62
2019-03-27T01:35:01.175Z,50.96
2019-03-27T01:37:35.732Z,51.18
2019-03-27T01:40:07.704Z,51.26
2019-03-27T01:42:41.869Z,51.33
2019-03-27T01:45:17.218Z,51.45
2019-03-27T01:47:58.157Z,50.94
2019-03-27T01:50:30.352Z,51.78
2019-03-27T01:53:02.719Z,51.88
2019-03-27T01:55:36.847Z,51.93
2019-03-27T01:58:06.644Z,51.55
2019-03-27T02:00:39.012Z,51.00
2019-03-27T02:03:08.775Z,51.81
2019-03-27T02:05:42.608Z,51.09
2019-03-27T02:08:12.260Z,50.28
2019-03-27T02:10:53.773Z,50.18
2019-03-27T02:13:25.149Z,49.96
2019-03-27T02:16:06.655Z,49.59
2019-03-27T02:18:43.916Z,50.50
2019-03-27T02:21:15.908Z,50.30
2019-03-27T02:23:45.523Z,50.27
2019-03-27T02:26:15.157Z,50.13
2019-03-27T02:28:46.223Z,50.04
2019-03-27T02:31:18.379Z,50.86
2019-03-27T02:33:49.238Z,50.48
2019-03-27T02:36:18.879Z,50.78
2019-03-27T02:38:48.965Z,51.62
2019-03-27T02:41:19.495Z,52.26
2019-03-27T02:43:51.621Z,50.74
2019-03-27T02:46:26.924Z,51.63
2019-03-27T02:48:58.808Z,51.22
2019-03-27T02:51:34.025Z,51.37
2019-03-27T02:54:02.253Z,51.32
2019-03-27T02:56:31.945Z,51.00
2019-03-27T02:59:02.022Z,50.96
2019-03-27T03:01:32.766Z,51.60
2019-03-27T03:04:02.373Z,51.64
2019-03-27T03:06:32.345Z,52.00
2019-03-27T03:09:04.791Z,53.04
2019-03-27T03:11:34.866Z,53.84
2019-03-27T03:14:04.669Z,54.74
2019-03-27T03:16:42.392Z,54.79
2019-03-27T03:19:05.884Z,54.96
2019-03-27T03:21:35.602Z,55.59
2019-03-27T03:24:06.559Z,55.90
2019-03-27T03:26:40.166Z,55.73
2019-03-27T03:29:12.865Z,55.66
2019-03-27T03:31:46.824Z,55.84
2019-03-27T03:34:18.924Z,56.30
2019-03-27T03:36:51.122Z,55.75
2019-03-27T03:39:24.720Z,55.69
2019-03-27T03:41:54.439Z,55.79
2019-03-27T03:44:27.069Z,55.07
2019-03-27T03:47:00.077Z,55.18
2019-03-27T03:49:34.981Z,55.45
2019-03-27T03:52:07.411Z,54.27
2019-03-27T03:54:37.414Z,54.58
2019-03-27T03:57:12.319Z,54.60
2019-03-27T03:59:42.411Z,54.43
2019-03-27T04:02:12.960Z,54.09
2019-03-27T04:04:44.202Z,53.86
2019-03-27T04:07:16.955Z,53.90
2019-03-27T04:09:48.548Z,54.12
2019-03-27T04:12:21.433Z,54.36
2019-03-27T04:14:51.279Z,54.60
2019-03-27T04:17:20.916Z,55.17
2019-03-27T04:19:50.559Z,55.33
2019-03-27T04:22:24.128Z,55.35
2019-03-27T04:24:56.240Z,54.56
2019-03-27T04:27:27.555Z,55.05
2019-03-27T04:30:05.159Z,55.01
2019-03-27T04:32:38.104Z,54.83
2019-03-27T04:35:13.690Z,54.65
2019-03-27T04:37:43.708Z,54.97
2019-03-27T04:40:15.422Z,55.47
2019-03-27T04:42:55.584Z,55.58
2019-03-27T04:45:30.174Z,55.38
2019-03-27T04:48:02.644Z,55.32
2019-03-27T04:50:32.264Z,55.28
2019-03-27T04:53:01.902Z,55.07
2019-03-27T04:55:33.350Z,56.41
2019-03-27T04:58:03.895Z,56.47
2019-03-27T05:00:37.037Z,57.01
2019-03-27T05:03:07.088Z,57.71
2019-03-27T05:05:40.165Z,58.05
2019-03-27T05:08:09.747Z,57.99
2019-03-27T05:10:39.420Z,58.00
2019-03-27T05:13:11.113Z,57.27
2019-03-27T05:15:41.925Z,57.41
2019-03-27T05:18:11.748Z,56.96
2019-03-27T05:20:46.169Z,56.36
2019-03-27T05:23:17.212Z,56.10
2019-03-27T05:25:48.232Z,56.10
2019-03-27T05:28:18.194Z,56.29
2019-03-27T05:30:49.479Z,56.22
2019-03-27T05:33:19.155Z,56.32
2019-03-27T05:35:53.462Z,56.41
2019-03-27T05:38:23.262Z,56.80
2019-03-27T05:40:52.892Z,56.39
2019-03-27T05:43:22.538Z,56.30
2019-03-27T05:45:55.442Z,56.91
2019-03-27T05:48:28.162Z,56.88
2019-03-27T05:50:57.791Z,56.53
2019-03-27T05:53:27.438Z,56.66
2019-03-27T05:55:57.180Z,56.85
2019-03-27T05:58:26.787Z,57.01
2019-03-27T06:00:56.455Z,57.12
2019-03-27T06:03:26.069Z,56.84
2019-03-27T06:05:55.705Z,57.13
2019-03-27T06:08:25.525Z,56.92
2019-03-27T06:11:00.722Z,56.37
2019-03-27T06:13:30.877Z,56.89
2019-03-27T06:16:03.009Z,57.11
2019-03-27T06:18:32.821Z,56.74
2019-03-27T06:21:05.766Z,56.85
2019-03-27T06:23:35.451Z,56.81
2019-03-27T06:26:08.304Z,56.60
2019-03-27T06:28:44.825Z,56.44
2019-03-27T06:31:17.598Z,56.75
2019-03-27T06:33:49.904Z,56.98
2019-03-27T06:36:25.095Z,56.58
2019-03-27T06:38:55.088Z,56.55
2019-03-27T06:41:25.841Z,57.40
2019-03-27T06:43:55.501Z,57.54
2019-03-27T06:46:25.171Z,57.89
2019-03-27T06:48:55.077Z,57.98
2019-03-27T06:51:40.004Z,58.86
2019-03-27T06:54:08.319Z,58.70
2019-03-27T06:56:43.982Z,60.00
2019-03-27T06:59:16.132Z,59.99
2019-03-27T07:04:36.687Z,60.96
2019-03-27T07:07:09.304Z,61.21
2019-03-27T07:09:42.638Z,61.55
2019-03-27T07:12:20.968Z,62.35
2019-03-27T07:14:48.209Z,61.85
2019-03-27T07:17:20.705Z,61.52
2019-03-27T07:19:54.493Z,61.22
2019-03-27T07:22:24.160Z,61.84
2019-03-27T07:24:55.183Z,62.33
2019-03-27T07:27:30.584Z,62.37
2019-03-27T07:30:01.591Z,61.89
2019-03-27T07:32:35.743Z,62.83
2019-03-27T07:35:06.433Z,62.88
2019-03-27T07:37:37.881Z,63.85
2019-03-27T07:40:10.301Z,63.42
2019-03-27T07:42:40.101Z,62.89
2019-03-27T07:45:12.212Z,62.77
2019-03-27T07:47:43.587Z,63.48
2019-03-27T07:50:26.560Z,63.28
2019-03-27T07:53:01.240Z,62.51
2019-03-27T07:55:38.649Z,62.11
2019-03-27T07:58:10.550Z,61.61
2019-03-27T08:00:47.306Z,61.85
2019-03-27T08:03:19.176Z,62.10
2019-03-27T08:05:56.758Z,61.60
2019-03-27T08:08:26.315Z,61.10
2019-03-27T08:10:59.105Z,60.72
2019-03-27T08:13:28.707Z,60.27
2019-03-27T08:16:02.218Z,59.93
2019-03-27T08:18:31.816Z,60.47
2019-03-27T08:21:04.328Z,60.40
2019-03-27T08:23:36.190Z,60.15
2019-03-27T08:26:07.788Z,60.50
2019-03-27T08:28:37.331Z,60.95
2019-03-27T08:31:09.510Z,60.72
2019-03-27T08:33:44.861Z,60.41
2019-03-27T08:36:15.313Z,61.06
2019-03-27T08:38:47.689Z,60.81
2019-03-27T08:41:24.403Z,60.52
2019-03-27T08:44:06.362Z,59.66
2019-03-27T08:46:39.016Z,59.86
2019-03-27T08:49:21.099Z,58.21
2019-03-27T08:51:40.980Z,58.32
2019-03-27T08:54:11.784Z,58.61
2019-03-27T08:56:48.342Z,58.43
2019-03-27T08:59:18.853Z,58.03
2019-03-27T09:01:50.143Z,58.71
2019-03-27T09:04:19.770Z,57.89
2019-03-27T09:06:55.366Z,58.06
2019-03-27T09:09:33.127Z,58.73
2019-03-27T09:12:03.805Z,56.88
2019-03-27T09:14:36.252Z,56.26
2019-03-27T09:17:08.625Z,56.47
2019-03-27T09:19:41.012Z,56.35
2019-03-27T09:22:11.630Z,56.26
2019-03-27T09:24:45.378Z,57.47
2019-03-27T09:27:15.158Z,57.51
2019-03-27T09:29:48.414Z,58.03
2019-03-27T09:32:19.953Z,58.74
2019-03-27T09:34:51.537Z,58.43
2019-03-27T09:37:26.826Z,58.42
2019-03-27T09:39:56.427Z,58.05
2019-03-27T09:42:28.072Z,58.38
2019-03-27T09:45:01.268Z,58.27
2019-03-27T09:47:34.341Z,57.32
2019-03-27T09:50:03.894Z,57.74
2019-03-27T09:52:33.491Z,55.85
2019-03-27T09:55:04.880Z,57.42
2019-03-27T09:57:34.634Z,57.86
2019-03-27T10:00:09.286Z,56.25
2019-03-27T10:02:39.847Z,55.18
2019-03-27T10:05:15.791Z,54.49
2019-03-27T10:07:48.163Z,53.56
2019-03-27T10:10:19.228Z,54.36
2019-03-27T10:12:49.770Z,54.55
2019-03-27T10:15:19.469Z,53.59
2019-03-27T10:17:49.139Z,53.18
2019-03-27T10:20:18.730Z,52.14
2019-03-27T10:23:12.275Z,52.12
2019-03-27T10:25:50.267Z,51.55
2019-03-27T10:28:19.985Z,49.92
2019-03-27T10:30:49.840Z,49.29
2019-03-27T10:33:20.033Z,48.46
2019-03-27T10:35:51.190Z,48.11
2019-03-27T10:38:21.096Z,47.50
2019-03-27T10:40:50.837Z,47.64
2019-03-27T10:43:20.590Z,47.94
2019-03-27T10:45:50.301Z,49.88
2019-03-27T10:48:20.004Z,50.26
2019-03-27T10:50:49.881Z,48.69
2019-03-27T10:53:20.271Z,48.10
2019-03-27T10:55:53.391Z,47.77
2019-03-27T10:58:23.683Z,46.72
2019-03-27T11:00:54.153Z,47.22
2019-03-27T11:03:25.558Z,48.32
2019-03-27T11:05:56.095Z,47.81
2019-03-27T11:08:25.727Z,47.46
2019-03-27T11:10:58.492Z,47.74
2019-03-27T11:13:30.442Z,47.93
2019-03-27T11:16:01.911Z,47.84
2019-03-27T11:18:38.816Z,47.32
2019-03-27T11:21:12.806Z,46.45
2019-03-27T11:23:51.907Z,46.80
2019-03-27T11:26:24.979Z,46.90
2019-03-27T11:28:58.769Z,45.78
2019-03-27T11:31:28.976Z,45.17
2019-03-27T11:33:58.654Z,47.44
2019-03-27T11:36:37.495Z,44.69
2019-03-27T11:39:11.283Z,44.77
2019-03-27T11:41:49.453Z,42.87
2019-03-27T11:44:21.779Z,42.86
2019-03-27T11:46:57.327Z,42.73
2019-03-27T11:49:26.924Z,43.85
2019-03-27T11:51:56.817Z,45.87
2019-03-27T11:54:29.724Z,47.00
2019-03-27T11:57:00.611Z,47.54
2019-03-27T11:59:30.291Z,48.30
2019-03-27T12:02:01.776Z,48.63
2019-03-27T12:04:31.410Z,48.79
2019-03-27T12:07:02.113Z,48.96
2019-03-27T12:09:31.998Z,48.19
2019-03-27T12:12:02.489Z,48.09
2019-03-27T12:14:33.575Z,48.30
2019-03-27T12:17:03.439Z,48.80
2019-03-27T12:19:37.833Z,49.50
2019-03-27T12:22:11.628Z,49.42
2019-03-27T12:24:44.141Z,49.61
2019-03-27T12:27:35.978Z,49.66
2019-03-27T12:30:08.044Z,50.24
2019-03-27T12:32:41.238Z,50.70
2019-03-27T12:35:16.376Z,51.21
2019-03-27T12:37:46.960Z,51.19
2019-03-27T12:40:20.718Z,50.63
2019-03-27T12:42:54.304Z,49.69
2019-03-27T12:45:33.448Z,48.93
2019-03-27T12:48:06.486Z,48.98
2019-03-27T12:50:36.283Z,49.63
2019-03-27T12:53:15.983Z,49.55
2019-03-27T12:55:49.111Z,50.06
2019-03-27T12:58:18.732Z,50.35
2019-03-27T13:00:50.211Z,49.79
2019-03-27T13:03:19.811Z,49.63
2019-03-27T13:05:49.500Z,50.04
2019-03-27T13:08:20.384Z,49.45
2019-03-27T13:10:52.029Z,49.03
2019-03-27T13:13:24.533Z,48.40
2019-03-27T13:15:54.162Z,48.93
2019-03-27T13:18:23.874Z,48.53
2019-03-27T13:20:54.300Z,47.56
2019-03-27T13:23:24.168Z,47.54
2019-03-27T13:25:54.766Z,48.04
2019-03-27T13:28:24.415Z,48.92
2019-03-27T13:30:56.955Z,48.11
2019-03-27T13:33:26.549Z,47.44
2019-03-27T13:35:56.477Z,46.78
2019-03-27T13:38:31.587Z,46.26
2019-03-27T13:41:06.300Z,46.09
2019-03-27T13:43:36.787Z,46.17
2019-03-27T13:46:06.725Z,45.46
2019-03-27T13:48:36.994Z,44.61
2019-03-27T13:51:11.507Z,42.95
2019-03-27T13:53:41.309Z,43.19
2019-03-27T13:56:14.012Z,44.19
2019-03-27T13:58:44.080Z,44.84
2019-03-27T14:01:15.350Z,44.56
2019-03-27T14:03:47.873Z,44.96
2019-03-27T14:06:23.262Z,45.06
2019-03-27T14:08:55.965Z,44.96
2019-03-27T14:11:27.393Z,44.71
2019-03-27T14:14:10.305Z,42.94
2019-03-27T14:16:29.443Z,40.92
2019-03-27T14:18:59.008Z,40.33
2019-03-27T14:21:30.333Z,39.29
2019-03-27T14:24:03.905Z,38.74
2019-03-27T14:26:44.893Z,37.85
2019-03-27T14:29:06.454Z,38.22
2019-03-27T14:31:37.783Z,37.21
2019-03-27T14:34:07.629Z,37.64
2019-03-27T14:36:39.431Z,38.82
2019-03-27T14:39:18.775Z,39.98
2019-03-27T14:41:54.815Z,40.47
2019-03-27T14:44:22.326Z,40.24
2019-03-27T14:46:52.223Z,39.99
2019-03-27T14:49:22.019Z,40.22
2019-03-27T14:52:07.631Z,40.92
2019-03-27T14:54:27.353Z,39.91
2019-03-27T14:56:59.224Z,41.49
2019-03-27T14:59:30.324Z,41.32
2019-03-27T15:02:01.147Z,40.92
2019-03-27T15:04:36.477Z,38.94
2019-03-27T15:07:09.078Z,38.25
2019-03-27T15:09:43.938Z,39.79
2019-03-27T15:12:15.209Z,40.71
2019-03-27T15:14:46.037Z,41.99
2019-03-27T15:17:17.998Z,42.28
2019-03-27T15:19:57.435Z,42.52
2019-03-27T15:22:28.679Z,42.37
2019-03-27T15:24:58.331Z,42.46
2019-03-27T15:27:30.834Z,43.20
2019-03-27T15:30:00.490Z,42.10
2019-03-27T15:32:30.307Z,41.63
2019-03-27T15:35:00.027Z,41.86
2019-03-27T15:37:29.726Z,41.81
2019-03-27T15:40:00.720Z,41.60
2019-03-27T15:42:38.659Z,41.85
2019-03-27T15:45:15.104Z,41.50
2019-03-27T15:47:44.734Z,41.35
2019-03-27T15:50:14.881Z,40.68
2019-03-27T15:52:44.577Z,41.07
2019-03-27T15:55:16.918Z,42.32
2019-03-27T15:57:46.694Z,42.78
2019-03-27T16:00:16.992Z,43.02
2019-03-27T16:02:49.259Z,43.32
2019-03-27T16:05:18.898Z,43.61
2019-03-27T16:07:54.470Z,43.66
2019-03-27T16:10:31.402Z,43.04
2019-03-27T16:13:01.038Z,43.06
2019-03-27T16:15:31.166Z,43.30
2019-03-27T16:18:05.019Z,43.30
2019-03-27T16:20:34.645Z,43.00
2019-03-27T16:23:04.562Z,43.20
2019-03-27T16:25:34.577Z,42.76
2019-03-27T16:28:04.208Z,42.77
2019-03-27T16:30:39.393Z,42.63
2019-03-27T16:33:11.862Z,42.89
2019-03-27T16:35:43.896Z,42.61
2019-03-27T16:38:16.889Z,42.68
2019-03-27T16:40:53.759Z,42.39
2019-03-27T16:43:26.705Z,42.65
2019-03-27T16:45:56.305Z,42.43
2019-03-27T16:48:28.772Z,42.16
2019-03-27T16:50:58.394Z,41.73
2019-03-27T16:53:28.385Z,41.85
2019-03-27T16:55:58.019Z,41.84
2019-03-27T16:58:32.690Z,41.39
2019-03-27T17:01:02.335Z,41.61
2019-03-27T17:03:32.054Z,41.72
2019-03-27T17:06:05.252Z,41.88
2019-03-27T17:08:35.463Z,41.94
2019-03-27T17:11:10.561Z,42.26
2019-03-27T17:13:43.602Z,42.93
2019-03-27T17:16:13.664Z,42.97
2019-03-27T17:18:45.633Z,43.64
2019-03-27T17:21:15.588Z,43.62
2019-03-27T17:23:45.728Z,43.27
2019-03-27T17:26:18.384Z,43.36
2019-03-27T17:28:47.993Z,43.41
2019-03-27T17:31:19.094Z,43.18
2019-03-27T17:33:50.415Z,43.23
2019-03-27T17:36:20.880Z,43.30
2019-03-27T17:38:53.227Z,42.86
2019-03-27T17:41:31.598Z,43.07
2019-03-27T17:44:02.908Z,43.27
2019-03-27T17:46:33.365Z,43.15
2019-03-27T17:49:05.555Z,43.14
2019-03-27T17:51:36.248Z,43.09
2019-03-27T17:54:20.428Z,43.25
2019-03-27T17:56:43.125Z,43.41
2019-03-27T17:59:15.715Z,43.42
2019-03-27T18:01:50.670Z,43.16
2019-03-27T18:04:20.673Z,43.10
2019-03-27T18:06:50.383Z,43.26
2019-03-27T18:09:25.665Z,43.34
2019-03-27T18:11:58.243Z,43.26
2019-03-27T18:14:27.973Z,43.48
2019-03-27T18:16:57.605Z,43.69
2019-03-27T18:19:27.179Z,44.05
2019-03-27T18:22:07.468Z,43.92
2019-03-27T18:24:31.598Z,44.20
2019-03-27T18:27:01.341Z,44.15
2019-03-27T18:29:33.427Z,44.21
2019-03-27T18:32:05.870Z,44.17
2019-03-27T18:34:36.264Z,44.07
2019-03-27T18:37:11.111Z,44.23
2019-03-27T18:39:43.524Z,44.51
2019-03-27T18:42:13.614Z,44.82
2019-03-27T18:44:44.833Z,44.83
2019-03-27T18:47:34.776Z,44.77
2019-03-27T18:50:05.383Z,44.65
2019-03-27T18:52:35.034Z,44.60
2019-03-27T18:55:25.467Z,44.31
2019-03-27T18:58:00.163Z,44.60
2019-03-27T19:00:23.402Z,44.71
2019-03-27T19:02:53.027Z,44.58
2019-03-27T19:05:22.619Z,44.53
2019-03-27T19:07:52.332Z,44.58
2019-03-27T19:10:22.119Z,44.43
2019-03-27T19:12:51.854Z,44.55
2019-03-27T19:15:21.560Z,44.71
2019-03-27T19:17:52.979Z,44.56
2019-03-27T19:20:22.626Z,44.66
2019-03-27T19:22:52.534Z,44.83
2019-03-27T19:25:23.383Z,44.46
2019-03-27T19:27:59.199Z,44.71
2019-03-27T19:30:28.910Z,44.72
2019-03-27T19:33:01.436Z,44.71
2019-03-27T19:35:34.158Z,44.78
2019-03-27T19:38:05.542Z,44.74
2019-03-27T19:40:35.497Z,44.54
2019-03-27T19:43:06.709Z,44.56
2019-03-27T19:45:36.422Z,44.49
2019-03-27T19:48:14.738Z,44.41
2019-03-27T19:50:48.792Z,44.12
2019-03-27T19:53:23.524Z,44.14
2019-03-27T19:55:54.342Z,44.04
2019-03-27T19:58:34.716Z,44.18
2019-03-27T20:01:05.098Z,44.15
2019-03-27T20:03:34.960Z,44.30
2019-03-27T20:06:09.803Z,44.37
2019-03-27T20:08:39.455Z,44.14
2019-03-27T20:11:09.234Z,44.42
2019-03-27T20:13:39.035Z,44.83
2019-03-27T20:16:10.389Z,44.53
2019-03-27T20:18:41.008Z,44.72
2019-03-27T20:21:11.617Z,44.89
2019-03-27T20:23:43.488Z,44.61
2019-03-27T20:26:13.600Z,44.77
2019-03-27T20:28:44.660Z,45.00
2019-03-27T20:31:14.490Z,44.69
2019-03-27T20:33:44.389Z,44.55
2019-03-27T20:36:16.611Z,44.65
2019-03-27T20:38:49.528Z,44.57
2019-03-27T20:41:19.187Z,45.05
2019-03-27T20:43:55.065Z,45.04
2019-03-27T20:46:29.136Z,45.82
2019-03-27T20:48:56.936Z,46.61
2019-03-27T20:51:29.671Z,47.63
2019-03-27T20:54:01.343Z,47.11
2019-03-27T20:56:31.095Z,47.05
2019-03-27T20:59:01.590Z,46.99
2019-03-27T21:01:31.664Z,47.21
2019-03-27T21:04:05.142Z,48.08
2019-03-27T21:06:38.233Z,47.74
2019-03-27T21:09:07.866Z,47.89
2019-03-27T21:11:40.682Z,48.02
2019-03-27T21:14:10.248Z,47.83
2019-03-27T21:16:40.130Z,47.59
2019-03-27T21:19:12.043Z,47.64
2019-03-27T21:21:42.217Z,47.81
2019-03-27T21:24:13.233Z,47.12
2019-03-27T21:26:42.853Z,46.85
2019-03-27T21:29:13.617Z,47.05
2019-03-27T21:31:46.205Z,47.13
2019-03-27T21:34:20.916Z,47.80
2019-03-27T21:36:50.835Z,48.21
2019-03-27T21:39:22.169Z,48.53
2019-03-27T21:41:53.273Z,49.46
2019-03-27T21:44:22.982Z,49.41
2019-03-27T21:46:55.313Z,50.46
2019-03-27T21:49:25.356Z,49.86
2019-03-27T21:51:57.434Z,49.46
2019-03-27T21:54:27.176Z,48.46
2019-03-27T21:56:56.792Z,47.75
2019-03-27T21:59:26.457Z,47.68
2019-03-27T22:01:57.177Z,49.96
2019-03-27T22:04:29.813Z,48.95
2019-03-27T22:07:00.027Z,49.05
2019-03-27T22:09:32.297Z,49.03
2019-03-27T22:12:02.787Z,48.72
2019-03-27T22:14:51.521Z,47.99
2019-03-27T22:17:26.772Z,47.56
2019-03-27T22:19:57.630Z,47.99
2019-03-27T22:22:30.215Z,48.98
2019-03-27T22:25:02.000Z,48.02
2019-03-27T22:27:32.221Z,48.75
2019-03-27T22:30:03.649Z,48.90
2019-03-27T22:32:33.377Z,48.92
2019-03-27T22:35:03.334Z,50.20
2019-03-27T22:37:33.003Z,49.30
2019-03-27T22:40:02.620Z,49.16
2019-03-27T22:42:33.557Z,49.55
2019-03-27T22:45:04.965Z,50.40
2019-03-27T22:47:34.984Z,51.24
2019-03-27T22:50:08.897Z,49.97
2019-03-27T22:52:44.413Z,49.22
2019-03-27T22:55:13.991Z,49.19
2019-03-27T22:57:45.081Z,49.21
2019-03-27T23:00:32.437Z,50.81
2019-03-27T23:02:49.634Z,51.06
2019-03-27T23:05:20.773Z,50.53
2019-03-27T23:07:59.475Z,52.76
2019-03-27T23:10:29.250Z,51.76
2019-03-27T23:12:58.938Z,51.42
2019-03-27T23:15:29.670Z,50.26
2019-03-27T23:17:59.239Z,49.83
2019-03-27T23:20:30.018Z,49.36
2019-03-27T23:23:02.708Z,49.49
2019-03-27T23:25:33.687Z,50.03
2019-03-27T23:28:03.289Z,50.69
2019-03-27T23:30:32.856Z,52.62
2019-03-27T23:33:08.813Z,52.06
2019-03-27T23:35:38.634Z,51.59
2019-03-27T23:38:08.520Z,51.31
2019-03-27T23:40:42.603Z,51.78
2019-03-27T23:43:12.218Z,52.44
2019-03-27T23:45:46.002Z,52.95
2019-03-27T23:48:15.718Z,52.66
2019-03-27T23:50:45.332Z,53.13
2019-03-27T23:53:14.924Z,52.96
2019-03-27T23:55:47.458Z,51.89
2019-03-27T23:58:17.061Z,50.91
